createdAt,value
2023-04-19T00:01:01.710Z,102737.22
2023-04-19T00:06:08.371Z,102742.59
2023-04-19T00:11:11.781Z,102747.97
2023-04-19T00:16:14.946Z,102739.56
2023-04-19T00:21:19.317Z,102739.81
2023-04-19T00:26:22.461Z,102737.28
2023-04-19T00:31:28.416Z,102716.53
2023-04-19T00:36:32.913Z,102727.09
2023-04-19T00:41:36.009Z,102730.16
2023-04-19T00:46:41.211Z,102723.28
2023-04-19T00:51:46.056Z,102715.97
2023-04-19T00:56:49.563Z,102720.75
2023-04-19T01:01:53.288Z,102729.88
2023-04-19T01:06:58.510Z,102713.66
2023-04-19T01:12:03.579Z,102711.56
2023-04-19T01:17:07.578Z,102710.16
2023-04-19T01:22:20.505Z,102705.22
2023-04-19T01:27:23.909Z,102709.19
2023-04-19T01:32:27.412Z,102706.47
2023-04-19T01:37:36.446Z,102704.38
2023-04-19T01:42:39.496Z,102706.59
2023-04-19T01:47:42.778Z,102706.59
2023-04-19T01:52:47.174Z,102711.97
2023-04-19T01:57:50.221Z,102698.84
2023-04-19T02:02:53.803Z,102705.22
2023-04-19T02:08:01.407Z,102696.66
2023-04-19T02:13:06.913Z,102700.16
2023-04-19T02:18:10.077Z,102689.88
2023-04-19T02:23:15.007Z,102701.97
2023-04-19T02:28:18.244Z,102694.81
2023-04-19T02:33:23.235Z,102698.34
2023-04-19T02:38:27.725Z,102694.91
2023-04-19T02:43:30.692Z,102700.16
2023-04-19T02:48:33.825Z,102694.91
2023-04-19T02:53:38.201Z,102692.94
2023-04-19T02:58:41.194Z,102691.53
2023-04-19T03:03:44.565Z,102701.75
2023-04-19T03:08:51.475Z,102700.75
2023-04-19T03:13:55.302Z,102694.53
2023-04-19T03:18:58.385Z,102701.00
2023-04-19T03:24:06.830Z,102697.72
2023-04-19T03:29:10.987Z,102695.69
2023-04-19T03:34:22.257Z,102701.50
2023-04-19T03:39:28.289Z,102691.00
2023-04-19T03:44:36.853Z,102691.78
2023-04-19T03:49:42.023Z,102701.50
2023-04-19T03:54:46.858Z,102697.72
2023-04-19T04:00:02.112Z,102692.19
2023-04-19T04:05:07.058Z,102691.34
2023-04-19T04:10:13.120Z,102693.97
2023-04-19T04:15:19.537Z,102693.75
2023-04-19T04:20:27.332Z,102698.91
2023-04-19T04:25:39.267Z,102708.41
2023-04-19T04:30:47.211Z,102707.50
2023-04-19T04:35:51.414Z,102699.97
2023-04-19T04:40:59.937Z,102701.72
2023-04-19T04:46:04.319Z,102710.38
2023-04-19T04:51:12.705Z,102705.81
2023-04-19T04:56:19.838Z,102714.69
2023-04-19T05:01:24.202Z,102713.25
2023-04-19T05:06:28.097Z,102712.09
2023-04-19T05:11:32.779Z,102721.50
2023-04-19T05:16:35.976Z,102718.06
2023-04-19T05:21:40.385Z,102716.53
2023-04-19T05:26:46.850Z,102725.19
2023-04-19T05:31:50.894Z,102731.00
2023-04-19T05:37:14.304Z,102733.63
2023-04-19T05:42:19.618Z,102717.69
2023-04-19T05:47:22.740Z,102733.63
2023-04-19T05:52:58.804Z,102728.41
2023-04-19T05:58:03.350Z,102725.78
2023-04-19T06:03:07.086Z,102722.47
2023-04-19T06:08:10.580Z,102730.19
2023-04-19T06:13:15.070Z,102731.44
2023-04-19T06:18:19.345Z,102741.13
2023-04-19T06:23:23.613Z,102709.69
2023-04-19T06:28:28.140Z,102729.94
2023-04-19T06:33:31.160Z,102741.81
2023-04-19T06:38:34.144Z,102724.38
2023-04-19T06:43:39.530Z,102721.97
2023-04-19T06:48:43.094Z,102731.28
2023-04-19T06:53:46.270Z,102722.97
2023-04-19T06:58:51.204Z,102730.56
2023-04-19T07:03:56.510Z,102729.88
2023-04-19T07:09:00.442Z,102727.09
2023-04-19T07:14:04.836Z,102709.19
2023-04-19T07:19:07.805Z,102714.50
2023-04-19T07:24:10.877Z,102706.97
2023-04-19T07:29:15.358Z,102689.16
2023-04-19T07:34:18.511Z,102710.53
2023-04-19T07:39:21.680Z,102709.34
2023-04-19T07:44:26.163Z,102711.91
2023-04-19T07:49:33.854Z,102718.59
2023-04-19T07:54:39.272Z,102702.13
2023-04-19T07:59:43.979Z,102714.63
2023-04-19T08:04:49.836Z,102701.66
2023-04-19T08:09:53.061Z,102705.19
2023-04-19T08:15:05.152Z,102696.56
2023-04-19T08:20:13.089Z,102695.28
2023-04-19T08:25:16.729Z,102707.66
2023-04-19T08:30:21.722Z,102683.38
2023-04-19T08:35:25.322Z,102703.84
2023-04-19T08:40:28.626Z,102701.38
2023-04-19T08:45:34.455Z,102690.25
2023-04-19T08:50:48.755Z,102695.50
2023-04-19T08:56:12.760Z,102686.53
2023-04-19T09:01:33.764Z,102691.56
2023-04-19T09:06:38.425Z,102692.00
2023-04-19T09:11:41.880Z,102691.09
2023-04-19T09:16:47.201Z,102687.50
2023-04-19T09:21:52.026Z,102683.22
2023-04-19T09:26:57.925Z,102686.69
2023-04-19T09:32:02.669Z,102676.69
2023-04-19T09:37:48.073Z,102677.22
2023-04-19T09:48:07.788Z,102661.75
2023-04-19T09:53:12.189Z,102663.28
2023-04-19T09:58:15.643Z,102655.97
2023-04-19T10:03:22.156Z,102658.34
2023-04-19T10:08:28.346Z,102667.31
2023-04-19T10:13:31.638Z,102667.47
2023-04-19T10:18:36.652Z,102659.72
2023-04-19T10:23:40.350Z,102666.00
2023-04-19T10:28:43.836Z,102658.81
2023-04-19T10:33:49.570Z,102652.47
2023-04-19T10:38:53.762Z,102647.94
2023-04-19T10:44:11.266Z,102645.50
2023-04-19T10:49:16.259Z,102652.97
2023-04-19T10:54:37.577Z,102639.97
2023-04-19T10:59:43.322Z,102623.00
2023-04-19T11:05:14.039Z,102639.16
2023-04-19T11:10:29.720Z,102636.00
2023-04-19T11:15:32.787Z,102628.75
2023-04-19T11:20:37.093Z,102627.59
2023-04-19T11:25:40.336Z,102617.19
2023-04-19T11:30:44.468Z,102607.38
2023-04-19T11:35:49.381Z,102602.94
2023-04-19T11:41:00.571Z,102607.56
2023-04-19T11:46:07.565Z,102602.06
2023-04-19T11:51:12.907Z,102591.56
2023-04-19T11:56:16.984Z,102577.69
2023-04-19T12:01:22.372Z,102572.69
2023-04-19T12:06:28.209Z,102566.16
2023-04-19T12:11:44.483Z,102564.19
2023-04-19T12:16:47.886Z,102554.03
2023-04-19T12:21:52.528Z,102559.25
2023-04-19T12:26:57.512Z,102555.06
2023-04-19T12:32:01.883Z,102551.97
2023-04-19T12:37:06.318Z,102556.50
2023-04-19T12:42:09.385Z,102545.06
2023-04-19T12:47:12.372Z,102536.84
2023-04-19T12:52:16.879Z,102531.06
2023-04-19T12:57:19.945Z,102528.91
2023-04-19T13:02:23.131Z,102520.81
2023-04-19T13:07:28.648Z,102511.78
2023-04-19T13:12:31.642Z,102498.22
2023-04-19T13:17:34.718Z,102481.31
2023-04-19T13:22:39.302Z,102493.44
2023-04-19T13:27:42.420Z,102490.25
2023-04-19T13:32:45.610Z,102465.84
2023-04-19T13:37:52.094Z,102468.09
2023-04-19T13:42:57.217Z,102451.00
2023-04-19T13:48:00.432Z,102456.41
2023-04-19T13:53:04.904Z,102435.19
2023-04-19T13:58:08.000Z,102448.53
2023-04-19T14:03:11.386Z,102432.94
2023-04-19T14:08:15.971Z,102438.38
2023-04-19T14:13:21.962Z,102420.72
2023-04-19T14:18:25.364Z,102425.59
2023-04-19T14:23:29.807Z,102414.59
2023-04-19T14:28:32.835Z,102406.50
2023-04-19T14:33:36.399Z,102408.69
2023-04-19T14:38:45.415Z,102391.41
2023-04-19T14:43:48.859Z,102394.47
2023-04-19T14:48:51.937Z,102388.97
2023-04-19T14:53:56.564Z,102378.03
2023-04-19T14:58:59.992Z,102386.47
2023-04-19T15:04:03.310Z,102375.78
2023-04-19T15:09:08.042Z,102364.03
2023-04-19T15:14:11.198Z,102353.56
2023-04-19T15:19:14.798Z,102347.41
2023-04-19T15:24:19.798Z,102340.69
2023-04-19T15:29:24.210Z,102338.22
2023-04-19T15:34:27.511Z,102329.78
2023-04-19T15:39:31.959Z,102331.38
2023-04-19T15:44:35.050Z,102330.19
2023-04-19T15:49:38.059Z,102318.03
2023-04-19T15:54:42.422Z,102326.66
2023-04-19T15:59:45.626Z,102325.19
2023-04-19T16:04:49.410Z,102318.91
2023-04-19T16:09:54.128Z,102309.72
2023-04-19T16:14:57.400Z,102312.59
2023-04-19T16:20:00.308Z,102318.44
2023-04-19T16:25:07.214Z,102316.19
2023-04-19T16:30:11.212Z,102310.19
2023-04-19T16:35:14.358Z,102299.09
2023-04-19T16:40:18.910Z,102307.38
2023-04-19T16:45:23.424Z,102295.38
2023-04-19T16:50:26.533Z,102300.34
2023-04-19T16:55:34.009Z,102296.09
2023-04-19T17:00:37.385Z,102288.69
2023-04-19T17:05:40.604Z,102290.84
2023-04-19T17:10:45.047Z,102283.22
2023-04-19T17:15:48.605Z,102284.63
2023-04-19T17:20:52.002Z,102278.22
2023-04-19T17:25:56.381Z,102278.63
2023-04-19T17:30:59.376Z,102270.94
2023-04-19T17:36:02.357Z,102277.84
2023-04-19T17:41:08.920Z,102278.88
2023-04-19T17:46:13.200Z,102253.56
2023-04-19T17:51:16.645Z,102264.06
2023-04-19T17:56:21.462Z,102277.06
2023-04-19T18:01:25.138Z,102271.94
2023-04-19T18:06:28.347Z,102276.31
2023-04-19T18:11:32.794Z,102284.28
2023-04-19T18:16:35.870Z,102291.63
2023-04-19T18:21:39.317Z,102289.09
2023-04-19T18:26:44.568Z,102291.47
2023-04-19T18:31:47.682Z,102301.03
2023-04-19T18:36:56.049Z,102300.06
2023-04-19T18:42:03.811Z,102296.50
2023-04-19T18:47:07.416Z,102307.81
2023-04-19T18:52:10.806Z,102316.59
2023-04-19T19:02:21.764Z,102315.34
2023-04-19T19:07:34.880Z,102328.13
2023-04-19T19:12:40.012Z,102329.31
2023-04-19T19:17:43.771Z,102342.69
2023-04-19T19:22:46.997Z,102348.78
2023-04-19T19:28:06.262Z,102339.38
2023-04-19T19:33:10.006Z,102340.34
2023-04-19T19:38:13.107Z,102346.69
2023-04-19T19:43:17.993Z,102343.94
2023-04-19T19:48:21.201Z,102352.50
2023-04-19T19:53:25.955Z,102364.16
2023-04-19T19:58:47.581Z,102376.72
2023-04-19T20:03:55.668Z,102369.47
2023-04-19T20:08:59.741Z,102384.75
2023-04-19T20:14:04.566Z,102396.34
2023-04-19T20:19:10.447Z,102390.34
2023-04-19T20:24:14.042Z,102389.44
2023-04-19T20:29:18.761Z,102404.03
2023-04-19T20:34:22.532Z,102405.28
2023-04-19T20:39:26.711Z,102367.56
2023-04-19T20:44:31.557Z,102404.53
2023-04-19T20:49:34.563Z,102399.63
2023-04-19T20:54:39.049Z,102387.84
2023-04-19T20:59:45.253Z,102405.38
2023-04-19T21:04:50.332Z,102415.28
2023-04-19T21:09:53.895Z,102414.78
2023-04-19T21:14:58.475Z,102419.75
2023-04-19T21:20:02.252Z,102426.09
2023-04-19T21:25:05.964Z,102433.88
2023-04-19T21:30:12.225Z,102417.41
2023-04-19T21:35:15.243Z,102425.69
2023-04-19T21:40:18.333Z,102416.78
2023-04-19T21:45:23.003Z,102416.97
2023-04-19T21:50:26.079Z,102426.13
2023-04-19T21:55:29.406Z,102418.44
2023-04-19T22:00:33.869Z,102412.34
2023-04-19T22:05:37.575Z,102420.13
2023-04-19T22:10:41.242Z,102413.09
2023-04-19T22:15:46.095Z,102421.75
2023-04-19T22:20:50.901Z,102422.09
2023-04-19T22:25:53.946Z,102420.88
2023-04-19T22:30:58.482Z,102423.19
2023-04-19T22:36:01.764Z,102415.25
2023-04-19T22:41:05.550Z,102417.53
2023-04-19T22:46:10.518Z,102408.34
2023-04-19T22:51:13.681Z,102410.53
2023-04-19T22:56:18.016Z,102410.88
2023-04-19T23:01:22.522Z,102398.16
2023-04-19T23:06:25.845Z,102390.06
2023-04-19T23:11:30.033Z,102380.63
2023-04-19T23:16:34.628Z,102364.41
2023-04-19T23:21:37.719Z,102384.06
2023-04-19T23:26:41.211Z,102384.06
2023-04-19T23:31:45.818Z,102389.66
2023-04-19T23:36:48.951Z,102386.84
2023-04-19T23:41:52.173Z,102387.16
2023-04-19T23:46:56.719Z,102375.31
2023-04-19T23:51:59.901Z,102366.91
2023-04-19T23:57:03.007Z,102377.38
